sensor_id;sensor_type;location;lat;lon;timestamp;P1;durP1;ratioP1;P2;durP2;ratioP2
12912;SDS011;6524;51.368;11.984;2024-01-16T00:04:54;3.97;;;3.17;;
12912;SDS011;6524;51.368;11.984;2024-01-16T00:09:55;5.50;;;3.13;;
12912;SDS011;6524;51.368;11.984;2024-01-16T00:14:55;4.63;;;3.27;;
12912;SDS011;6524;51.368;11.984;2024-01-16T00:19:55;3.93;;;3.03;;
12912;SDS011;6524;51.368;11.984;2024-01-16T00:24:55;4.23;;;3.10;;
12912;SDS011;6524;51.368;11.984;2024-01-16T00:29:56;4.43;;;2.90;;
12912;SDS011;6524;51.368;11.984;2024-01-16T00:34:56;4.10;;;2.70;;
12912;SDS011;6524;51.368;11.984;2024-01-16T00:39:56;6.37;;;2.77;;
12912;SDS011;6524;51.368;11.984;2024-01-16T00:44:57;4.30;;;2.63;;
12912;SDS011;6524;51.368;11.984;2024-01-16T00:49:58;3.70;;;2.47;;
12912;SDS011;6524;51.368;11.984;2024-01-16T00:55:00;3.77;;;2.53;;
12912;SDS011;6524;51.368;11.984;2024-01-16T01:00:00;3.63;;;2.50;;
12912;SDS011;6524;51.368;11.984;2024-01-16T05:03:09;5.27;;;4.23;;
12912;SDS011;6524;51.368;11.984;2024-01-16T05:08:10;5.80;;;3.40;;
12912;SDS011;6524;51.368;11.984;2024-01-16T05:13:10;4.93;;;3.10;;
12912;SDS011;6524;51.368;11.984;2024-01-16T05:18:12;6.03;;;3.30;;
12912;SDS011;6524;51.368;11.984;2024-01-16T05:23:12;3.87;;;2.93;;
12912;SDS011;6524;51.368;11.984;2024-01-16T05:28:12;5.13;;;3.30;;
12912;SDS011;6524;51.368;11.984;2024-01-16T05:33:13;6.17;;;3.10;;
12912;SDS011;6524;51.368;11.984;2024-01-16T05:38:13;5.33;;;3.00;;
12912;SDS011;6524;51.368;11.984;2024-01-16T05:43:16;4.87;;;3.37;;
12912;SDS011;6524;51.368;11.984;2024-01-16T05:48:17;3.73;;;2.80;;
12912;SDS011;6524;51.368;11.984;2024-01-16T05:53:19;5.53;;;3.00;;
12912;SDS011;6524;51.368;11.984;2024-01-16T05:58:19;5.50;;;3.00;;
12912;SDS011;6524;51.368;11.984;2024-01-16T06:03:19;5.47;;;3.00;;
12912;SDS011;6524;51.368;11.984;2024-01-16T06:08:20;5.60;;;2.65;;
12912;SDS011;6524;51.368;11.984;2024-01-16T06:13:20;6.43;;;2.90;;
12912;SDS011;6524;51.368;11.984;2024-01-16T06:18:22;6.87;;;3.50;;
12912;SDS011;6524;51.368;11.984;2024-01-16T06:23:23;6.80;;;4.17;;
12912;SDS011;6524;51.368;11.984;2024-01-16T06:28:23;7.40;;;3.20;;
12912;SDS011;6524;51.368;11.984;2024-01-16T06:33:23;5.03;;;3.20;;
12912;SDS011;6524;51.368;11.984;2024-01-16T06:38:24;6.90;;;3.33;;
12912;SDS011;6524;51.368;11.984;2024-01-16T06:43:24;8.60;;;3.47;;
12912;SDS011;6524;51.368;11.984;2024-01-16T06:48:24;5.27;;;3.43;;
12912;SDS011;6524;51.368;11.984;2024-01-16T06:53:25;5.10;;;3.30;;
12912;SDS011;6524;51.368;11.984;2024-01-16T06:58:25;6.27;;;3.60;;
12912;SDS011;6524;51.368;11.984;2024-01-16T07:03:25;6.28;;;3.47;;
12912;SDS011;6524;51.368;11.984;2024-01-16T07:08:26;7.10;;;4.00;;
12912;SDS011;6524;51.368;11.984;2024-01-16T07:13:27;5.33;;;3.00;;
12912;SDS011;6524;51.368;11.984;2024-01-16T07:18:27;4.87;;;3.10;;
12912;SDS011;6524;51.368;11.984;2024-01-16T07:23:28;5.13;;;3.10;;
12912;SDS011;6524;51.368;11.984;2024-01-16T07:28:28;5.37;;;3.20;;
12912;SDS011;6524;51.368;11.984;2024-01-16T07:33:29;5.00;;;3.07;;
12912;SDS011;6524;51.368;11.984;2024-01-16T07:38:29;6.55;;;3.20;;
12912;SDS011;6524;51.368;11.984;2024-01-16T07:43:29;5.47;;;3.40;;
12912;SDS011;6524;51.368;11.984;2024-01-16T07:48:29;6.37;;;3.10;;
12912;SDS011;6524;51.368;11.984;2024-01-16T07:53:30;6.77;;;2.97;;
12912;SDS011;6524;51.368;11.984;2024-01-16T07:58:30;7.03;;;3.30;;
12912;SDS011;6524;51.368;11.984;2024-01-16T08:03:31;8.23;;;3.20;;
12912;SDS011;6524;51.368;11.984;2024-01-16T08:08:31;5.97;;;3.37;;
12912;SDS011;6524;51.368;11.984;2024-01-16T08:13:33;6.60;;;2.90;;
12912;SDS011;6524;51.368;11.984;2024-01-16T08:18:34;5.60;;;3.47;;
12912;SDS011;6524;51.368;11.984;2024-01-16T08:23:34;8.23;;;3.40;;
12912;SDS011;6524;51.368;11.984;2024-01-16T08:28:35;5.57;;;3.70;;
12912;SDS011;6524;51.368;11.984;2024-01-16T08:33:35;6.97;;;3.90;;
12912;SDS011;6524;51.368;11.984;2024-01-16T08:38:36;6.83;;;3.70;;
12912;SDS011;6524;51.368;11.984;2024-01-16T08:43:36;5.83;;;3.67;;
12912;SDS011;6524;51.368;11.984;2024-01-16T08:48:36;6.13;;;3.30;;
12912;SDS011;6524;51.368;11.984;2024-01-16T08:53:37;9.13;;;3.67;;
12912;SDS011;6524;51.368;11.984;2024-01-16T08:58:38;6.13;;;3.20;;
12912;SDS011;6524;51.368;11.984;2024-01-16T09:03:40;7.07;;;3.23;;
12912;SDS011;6524;51.368;11.984;2024-01-16T09:08:43;5.30;;;3.10;;
12912;SDS011;6524;51.368;11.984;2024-01-16T09:13:44;6.80;;;3.27;;
12912;SDS011;6524;51.368;11.984;2024-01-16T09:18:45;5.23;;;3.10;;
12912;SDS011;6524;51.368;11.984;2024-01-16T09:23:48;7.20;;;3.23;;
12912;SDS011;6524;51.368;11.984;2024-01-16T09:28:48;6.70;;;3.20;;
12912;SDS011;6524;51.368;11.984;2024-01-16T09:33:49;6.80;;;3.40;;
12912;SDS011;6524;51.368;11.984;2024-01-16T09:38:50;8.93;;;3.60;;
12912;SDS011;6524;51.368;11.984;2024-01-16T09:43:50;5.97;;;3.77;;
12912;SDS011;6524;51.368;11.984;2024-01-16T09:48:55;4.77;;;3.60;;
12912;SDS011;6524;51.368;11.984;2024-01-16T09:53:56;7.00;;;3.50;;
12912;SDS011;6524;51.368;11.984;2024-01-16T09:58:58;6.73;;;3.20;;
12912;SDS011;6524;51.368;11.984;2024-01-16T10:04:05;6.27;;;3.33;;
12912;SDS011;6524;51.368;11.984;2024-01-16T10:09:06;7.73;;;3.60;;
12912;SDS011;6524;51.368;11.984;2024-01-16T10:14:09;4.30;;;3.13;;
12912;SDS011;6524;51.368;11.984;2024-01-16T10:19:15;5.83;;;3.47;;
12912;SDS011;6524;51.368;11.984;2024-01-16T10:24:17;6.13;;;3.50;;
12912;SDS011;6524;51.368;11.984;2024-01-16T10:29:20;9.73;;;4.73;;
12912;SDS011;6524;51.368;11.984;2024-01-16T10:34:22;13.03;;;5.87;;
12912;SDS011;6524;51.368;11.984;2024-01-16T10:39:24;9.63;;;4.60;;
12912;SDS011;6524;51.368;11.984;2024-01-16T10:44:25;7.50;;;3.67;;
12912;SDS011;6524;51.368;11.984;2024-01-16T10:49:27;6.97;;;3.37;;
12912;SDS011;6524;51.368;11.984;2024-01-16T10:54:31;6.30;;;3.63;;
12912;SDS011;6524;51.368;11.984;2024-01-16T11:04:52;4.60;;;3.07;;
12912;SDS011;6524;51.368;11.984;2024-01-16T11:09:54;4.93;;;3.10;;
12912;SDS011;6524;51.368;11.984;2024-01-16T11:14:56;6.63;;;3.40;;
12912;SDS011;6524;51.368;11.984;2024-01-16T11:20:01;6.07;;;3.27;;
12912;SDS011;6524;51.368;11.984;2024-01-16T11:25:13;7.53;;;3.63;;
12912;SDS011;6524;51.368;11.984;2024-01-16T11:30:14;6.80;;;3.67;;
12912;SDS011;6524;51.368;11.984;2024-01-16T11:35:33;7.17;;;3.67;;
12912;SDS011;6524;51.368;11.984;2024-01-16T11:40:36;5.57;;;3.80;;
12912;SDS011;6524;51.368;11.984;2024-01-16T11:50:38;8.23;;;4.30;;
12912;SDS011;6524;51.368;11.984;2024-01-16T12:01:01;8.33;;;4.47;;
12912;SDS011;6524;51.368;11.984;2024-01-16T12:06:03;7.00;;;4.63;;
12912;SDS011;6524;51.368;11.984;2024-01-16T12:11:06;7.47;;;4.70;;
12912;SDS011;6524;51.368;11.984;2024-01-16T12:16:07;6.80;;;5.17;;
12912;SDS011;6524;51.368;11.984;2024-01-16T12:21:11;6.07;;;5.30;;
12912;SDS011;6524;51.368;11.984;2024-01-16T12:26:19;7.53;;;5.50;;
12912;SDS011;6524;51.368;11.984;2024-01-16T12:31:20;8.17;;;5.80;;
12912;SDS011;6524;51.368;11.984;2024-01-16T12:36:21;7.67;;;5.50;;
12912;SDS011;6524;51.368;11.984;2024-01-16T12:41:21;8.50;;;5.40;;
12912;SDS011;6524;51.368;11.984;2024-01-16T12:46:23;11.03;;;6.23;;
12912;SDS011;6524;51.368;11.984;2024-01-16T12:51:24;8.73;;;5.70;;
12912;SDS011;6524;51.368;11.984;2024-01-16T12:56:24;7.93;;;5.80;;
12912;SDS011;6524;51.368;11.984;2024-01-16T13:01:25;8.27;;;5.90;;
12912;SDS011;6524;51.368;11.984;2024-01-16T13:06:28;7.17;;;5.33;;
12912;SDS011;6524;51.368;11.984;2024-01-16T13:11:28;7.53;;;5.47;;
12912;SDS011;6524;51.368;11.984;2024-01-16T13:16:29;6.40;;;4.97;;
12912;SDS011;6524;51.368;11.984;2024-01-16T13:21:30;7.43;;;5.03;;
12912;SDS011;6524;51.368;11.984;2024-01-16T13:26:31;7.20;;;5.03;;
12912;SDS011;6524;51.368;11.984;2024-01-16T13:31:32;7.67;;;4.70;;
12912;SDS011;6524;51.368;11.984;2024-01-16T13:36:33;6.83;;;5.20;;
12912;SDS011;6524;51.368;11.984;2024-01-16T13:41:33;6.33;;;5.43;;
12912;SDS011;6524;51.368;11.984;2024-01-16T13:46:34;7.83;;;6.20;;
12912;SDS011;6524;51.368;11.984;2024-01-16T13:51:34;6.60;;;5.20;;
12912;SDS011;6524;51.368;11.984;2024-01-16T13:56:35;5.40;;;4.90;;
12912;SDS011;6524;51.368;11.984;2024-01-16T14:01:35;7.00;;;5.20;;
12912;SDS011;6524;51.368;11.984;2024-01-16T14:06:36;8.20;;;4.90;;
12912;SDS011;6524;51.368;11.984;2024-01-16T14:11:37;7.87;;;5.00;;
12912;SDS011;6524;51.368;11.984;2024-01-16T14:16:38;8.60;;;4.40;;
12912;SDS011;6524;51.368;11.984;2024-01-16T14:21:38;6.87;;;4.90;;
12912;SDS011;6524;51.368;11.984;2024-01-16T14:26:41;7.33;;;4.80;;
12912;SDS011;6524;51.368;11.984;2024-01-16T14:31:44;6.47;;;4.30;;
12912;SDS011;6524;51.368;11.984;2024-01-16T14:36:50;6.30;;;4.70;;
12912;SDS011;6524;51.368;11.984;2024-01-16T14:41:51;7.87;;;4.47;;
12912;SDS011;6524;51.368;11.984;2024-01-16T14:46:54;6.37;;;4.30;;
12912;SDS011;6524;51.368;11.984;2024-01-16T14:51:55;8.63;;;4.70;;
12912;SDS011;6524;51.368;11.984;2024-01-16T15:02:32;6.57;;;4.77;;
12912;SDS011;6524;51.368;11.984;2024-01-16T15:13:50;7.43;;;4.50;;
12912;SDS011;6524;51.368;11.984;2024-01-16T15:20:01;5.47;;;4.67;;
12912;SDS011;6524;51.368;11.984;2024-01-16T15:25:11;6.33;;;4.20;;
12912;SDS011;6524;51.368;11.984;2024-01-16T15:30:39;7.33;;;4.97;;
12912;SDS011;6524;51.368;11.984;2024-01-16T15:35:42;7.37;;;4.87;;
12912;SDS011;6524;51.368;11.984;2024-01-16T15:40:43;7.00;;;5.30;;
12912;SDS011;6524;51.368;11.984;2024-01-16T15:45:44;6.13;;;4.67;;
12912;SDS011;6524;51.368;11.984;2024-01-16T15:50:45;8.10;;;5.20;;
12912;SDS011;6524;51.368;11.984;2024-01-16T15:55:46;6.77;;;4.70;;
12912;SDS011;6524;51.368;11.984;2024-01-16T16:00:46;7.80;;;5.00;;
12912;SDS011;6524;51.368;11.984;2024-01-16T16:05:47;6.50;;;5.10;;
12912;SDS011;6524;51.368;11.984;2024-01-16T16:10:48;5.67;;;4.70;;
12912;SDS011;6524;51.368;11.984;2024-01-16T16:15:48;7.40;;;5.13;;
12912;SDS011;6524;51.368;11.984;2024-01-16T16:20:50;10.33;;;5.50;;
12912;SDS011;6524;51.368;11.984;2024-01-16T16:25:53;6.00;;;5.23;;
12912;SDS011;6524;51.368;11.984;2024-01-16T16:49:07;7.03;;;6.00;;
12912;SDS011;6524;51.368;11.984;2024-01-16T16:54:08;9.17;;;6.13;;
12912;SDS011;6524;51.368;11.984;2024-01-16T16:59:10;8.77;;;5.80;;
12912;SDS011;6524;51.368;11.984;2024-01-16T17:04:11;10.13;;;6.13;;
12912;SDS011;6524;51.368;11.984;2024-01-16T17:09:11;9.50;;;6.03;;
12912;SDS011;6524;51.368;11.984;2024-01-16T17:14:13;9.27;;;6.43;;
12912;SDS011;6524;51.368;11.984;2024-01-16T17:19:14;8.93;;;6.20;;
12912;SDS011;6524;51.368;11.984;2024-01-16T17:24:15;10.17;;;6.20;;
12912;SDS011;6524;51.368;11.984;2024-01-16T17:29:15;8.93;;;5.70;;
12912;SDS011;6524;51.368;11.984;2024-01-16T17:59:26;7.80;;;5.53;;
12912;SDS011;6524;51.368;11.984;2024-01-16T18:04:33;9.03;;;5.53;;
12912;SDS011;6524;51.368;11.984;2024-01-16T18:15:14;8.00;;;5.87;;
12912;SDS011;6524;51.368;11.984;2024-01-16T18:20:15;10.13;;;5.43;;
12912;SDS011;6524;51.368;11.984;2024-01-16T18:25:17;9.93;;;5.67;;
12912;SDS011;6524;51.368;11.984;2024-01-16T18:30:21;8.97;;;4.80;;
12912;SDS011;6524;51.368;11.984;2024-01-16T18:35:41;7.00;;;5.03;;
12912;SDS011;6524;51.368;11.984;2024-01-16T18:40:42;8.07;;;5.73;;
12912;SDS011;6524;51.368;11.984;2024-01-16T18:45:43;8.10;;;4.97;;
12912;SDS011;6524;51.368;11.984;2024-01-16T18:50:43;9.87;;;7.37;;
12912;SDS011;6524;51.368;11.984;2024-01-16T18:55:52;9.57;;;6.73;;
12912;SDS011;6524;51.368;11.984;2024-01-16T19:00:54;9.90;;;6.43;;
12912;SDS011;6524;51.368;11.984;2024-01-16T19:05:57;8.07;;;6.60;;
12912;SDS011;6524;51.368;11.984;2024-01-16T19:10:57;12.00;;;8.47;;
12912;SDS011;6524;51.368;11.984;2024-01-16T19:15:59;8.40;;;5.87;;
12912;SDS011;6524;51.368;11.984;2024-01-16T19:21:03;10.30;;;6.40;;
12912;SDS011;6524;51.368;11.984;2024-01-16T19:26:07;9.73;;;7.70;;
12912;SDS011;6524;51.368;11.984;2024-01-16T19:31:26;12.57;;;8.13;;
12912;SDS011;6524;51.368;11.984;2024-01-16T19:36:33;12.30;;;9.03;;
12912;SDS011;6524;51.368;11.984;2024-01-16T19:41:42;11.03;;;7.63;;
12912;SDS011;6524;51.368;11.984;2024-01-16T19:47:09;14.67;;;8.27;;
12912;SDS011;6524;51.368;11.984;2024-01-16T19:52:13;11.57;;;8.53;;
12912;SDS011;6524;51.368;11.984;2024-01-16T19:57:17;12.60;;;8.90;;
12912;SDS011;6524;51.368;11.984;2024-01-16T20:02:18;12.63;;;7.83;;
12912;SDS011;6524;51.368;11.984;2024-01-16T20:07:21;9.80;;;7.57;;
12912;SDS011;6524;51.368;11.984;2024-01-16T20:12:21;10.97;;;7.43;;
12912;SDS011;6524;51.368;11.984;2024-01-16T20:17:22;11.63;;;7.93;;
12912;SDS011;6524;51.368;11.984;2024-01-16T20:22:23;11.07;;;7.43;;
12912;SDS011;6524;51.368;11.984;2024-01-16T20:27:25;12.17;;;7.27;;
12912;SDS011;6524;51.368;11.984;2024-01-16T20:32:28;12.33;;;7.33;;
12912;SDS011;6524;51.368;11.984;2024-01-16T20:37:29;12.50;;;8.17;;
12912;SDS011;6524;51.368;11.984;2024-01-16T20:42:32;12.83;;;8.97;;
12912;SDS011;6524;51.368;11.984;2024-01-16T20:47:35;13.63;;;9.77;;
12912;SDS011;6524;51.368;11.984;2024-01-16T20:52:37;12.83;;;9.33;;
12912;SDS011;6524;51.368;11.984;2024-01-16T20:57:37;14.57;;;8.97;;
12912;SDS011;6524;51.368;11.984;2024-01-16T21:02:38;13.60;;;9.17;;
12912;SDS011;6524;51.368;11.984;2024-01-16T21:07:42;11.93;;;9.13;;
12912;SDS011;6524;51.368;11.984;2024-01-16T21:12:45;16.97;;;11.00;;
12912;SDS011;6524;51.368;11.984;2024-01-16T21:17:48;12.93;;;9.03;;
12912;SDS011;6524;51.368;11.984;2024-01-16T21:22:49;12.30;;;8.23;;
12912;SDS011;6524;51.368;11.984;2024-01-16T21:27:52;11.87;;;7.67;;
12912;SDS011;6524;51.368;11.984;2024-01-16T21:32:53;10.93;;;7.27;;
12912;SDS011;6524;51.368;11.984;2024-01-16T21:37:54;10.37;;;7.03;;
12912;SDS011;6524;51.368;11.984;2024-01-16T21:42:56;11.93;;;7.13;;
12912;SDS011;6524;51.368;11.984;2024-01-16T21:48:02;9.10;;;6.43;;
12912;SDS011;6524;51.368;11.984;2024-01-16T21:53:10;8.73;;;6.63;;
12912;SDS011;6524;51.368;11.984;2024-01-16T21:58:11;10.57;;;6.67;;
12912;SDS011;6524;51.368;11.984;2024-01-16T22:03:16;10.27;;;6.60;;
12912;SDS011;6524;51.368;11.984;2024-01-16T22:08:37;10.50;;;7.40;;
12912;SDS011;6524;51.368;11.984;2024-01-16T22:13:48;10.67;;;6.47;;
12912;SDS011;6524;51.368;11.984;2024-01-16T22:18:52;8.80;;;6.10;;
12912;SDS011;6524;51.368;11.984;2024-01-16T22:23:53;10.77;;;6.03;;
12912;SDS011;6524;51.368;11.984;2024-01-16T22:28:54;9.40;;;6.40;;
12912;SDS011;6524;51.368;11.984;2024-01-16T22:33:59;7.70;;;5.83;;
12912;SDS011;6524;51.368;11.984;2024-01-16T22:39:00;9.57;;;6.33;;
12912;SDS011;6524;51.368;11.984;2024-01-16T22:44:01;9.00;;;6.50;;
12912;SDS011;6524;51.368;11.984;2024-01-16T22:49:02;11.47;;;7.83;;
12912;SDS011;6524;51.368;11.984;2024-01-16T22:54:03;10.87;;;6.60;;
12912;SDS011;6524;51.368;11.984;2024-01-16T22:59:04;10.70;;;6.77;;
12912;SDS011;6524;51.368;11.984;2024-01-16T23:04:05;9.20;;;6.90;;
12912;SDS011;6524;51.368;11.984;2024-01-16T23:09:08;11.60;;;7.40;;
12912;SDS011;6524;51.368;11.984;2024-01-16T23:14:09;9.83;;;6.77;;
12912;SDS011;6524;51.368;11.984;2024-01-16T23:19:11;14.10;;;6.93;;
12912;SDS011;6524;51.368;11.984;2024-01-16T23:24:12;11.17;;;7.40;;
12912;SDS011;6524;51.368;11.984;2024-01-16T23:29:13;12.70;;;7.50;;
12912;SDS011;6524;51.368;11.984;2024-01-16T23:34:14;11.33;;;7.93;;
12912;SDS011;6524;51.368;11.984;2024-01-16T23:39:15;12.10;;;7.43;;
12912;SDS011;6524;51.368;11.984;2024-01-16T23:44:15;9.93;;;7.43;;
12912;SDS011;6524;51.368;11.984;2024-01-16T23:49:16;11.10;;;7.27;;
12912;SDS011;6524;51.368;11.984;2024-01-16T23:54:17;11.60;;;8.10;;
12912;SDS011;6524;51.368;11.984;2024-01-16T23:59:17;11.87;;;7.67;;
